Time;durP1;ratioP1;P1;durP2;ratioP2;P2;SDS_P1;SDS_P2;PMS_P1;PMS_P2;Temp;Humidity;BMP_temperature;BMP_pressure;BME280_temperature;BME280_humidity;BME280_pressure;Samples;Min_cycle;Max_cycle;Signal;HPM_P1;HPM_P2
2021/10/19 00:02:13;;;;;;;16.97;13.87;;;12.80;99.90;;;;;;5031158;28;20535;-72
2021/10/19 00:04:38;;;;;;;16.80;13.90;;;12.70;99.90;;;;;;5030664;28;20577;-71
2021/10/19 00:07:04;;;;;;;16.03;12.97;;;12.70;99.90;;;;;;5029095;28;20205;-71
2021/10/19 00:09:29;;;;;;;25.40;14.10;;;12.80;99.90;;;;;;5030754;28;20208;-71
2021/10/19 00:11:55;;;;;;;17.20;13.60;;;12.70;99.90;;;;;;5031201;28;20204;-71
2021/10/19 00:14:20;;;;;;;16.70;12.87;;;12.70;99.90;;;;;;5030702;27;20282;-71
2021/10/19 00:16:46;;;;;;;17.77;14.37;;;12.80;99.90;;;;;;5029459;28;20234;-69
2021/10/19 00:19:11;;;;;;;18.67;15.40;;;12.80;99.90;;;;;;5029997;28;20414;-71
2021/10/19 00:21:37;;;;;;;15.90;13.73;;;12.70;99.90;;;;;;5030635;28;20163;-71
2021/10/19 00:24:03;;;;;;;15.67;12.60;;;12.80;99.90;;;;;;5031153;28;20223;-71
2021/10/19 00:26:28;;;;;;;15.53;13.10;;;12.80;99.90;;;;;;5029082;28;20324;-71
2021/10/19 00:28:54;;;;;;;18.37;14.03;;;12.80;99.90;;;;;;5030787;28;20437;-71
2021/10/19 00:31:20;;;;;;;16.57;13.13;;;12.80;99.90;;;;;;5012848;28;20179;-71
2021/10/19 00:33:45;;;;;;;16.07;12.90;;;12.80;99.90;;;;;;5010340;27;20664;-71
2021/10/19 00:36:11;;;;;;;16.63;13.40;;;12.80;99.90;;;;;;5010907;28;20233;-71
2021/10/19 00:38:36;;;;;;;15.80;12.80;;;12.80;99.90;;;;;;5011465;28;20664;-71
2021/10/19 00:41:02;;;;;;;18.07;13.27;;;12.90;99.90;;;;;;5010731;28;20238;-71
2021/10/19 00:43:28;;;;;;;16.20;13.30;;;13.00;99.90;;;;;;5027184;27;20349;-71
2021/10/19 00:45:55;;;;;;;14.13;12.60;;;13.00;99.90;;;;;;5030550;28;20468;-71
2021/10/19 00:48:24;;;;;;;16.10;12.53;;;13.00;99.90;;;;;;5034598;28;20174;-70
2021/10/19 00:50:51;;;;;;;15.33;12.50;;;13.00;99.90;;;;;;5032509;28;20470;-71
2021/10/19 00:53:17;;;;;;;18.57;12.60;;;13.10;99.90;;;;;;5038724;27;20417;-71
2021/10/19 00:55:43;;;;;;;15.70;12.33;;;13.10;99.90;;;;;;5042224;28;20445;-71
2021/10/19 00:58:09;;;;;;;15.07;12.77;;;13.10;99.90;;;;;;5035433;28;20413;-71
2021/10/19 01:00:36;;;;;;;14.43;12.80;;;13.10;99.90;;;;;;5030401;28;20484;-71
2021/10/19 01:03:01;;;;;;;15.27;12.47;;;13.10;99.90;;;;;;5029016;28;20536;-71
2021/10/19 01:05:27;;;;;;;15.20;12.20;;;13.10;99.90;;;;;;5029795;28;20453;-71
2021/10/19 01:07:53;;;;;;;17.23;13.20;;;13.20;99.90;;;;;;5030238;28;20186;-71
2021/10/19 01:10:19;;;;;;;13.53;12.03;;;13.30;99.90;;;;;;5030606;28;20414;-71
2021/10/19 01:12:45;;;;;;;15.70;12.67;;;13.30;99.90;;;;;;5030769;28;20405;-71
2021/10/19 01:15:15;;;;;;;13.13;11.67;;;13.30;99.90;;;;;;5028287;27;20545;-71
2021/10/19 01:17:42;;;;;;;13.23;11.57;;;13.30;99.90;;;;;;5038072;28;20186;-71
2021/10/19 01:20:19;;;;;;;16.13;13.10;;;13.30;99.90;;;;;;5029693;28;20458;-71
2021/10/19 01:22:44;;;;;;;14.13;11.90;;;13.30;99.90;;;;;;5030335;28;20400;-71
2021/10/19 01:25:11;;;;;;;15.83;12.97;;;13.30;99.90;;;;;;5028147;27;20453;-71
2021/10/19 01:27:51;;;;;;;13.93;11.80;;;13.30;99.90;;;;;;5029559;28;20254;-71
2021/10/19 01:30:18;;;;;;;14.20;12.50;;;13.30;99.90;;;;;;5030477;28;20394;-71
2021/10/19 01:32:44;;;;;;;13.10;11.43;;;13.40;99.90;;;;;;5028327;28;20417;-71
2021/10/19 01:35:10;;;;;;;16.90;13.30;;;13.40;99.90;;;;;;5029429;28;20517;-71
2021/10/19 01:37:36;;;;;;;14.83;12.30;;;13.40;99.90;;;;;;5029601;28;20412;-71
2021/10/19 01:40:06;;;;;;;15.77;12.27;;;13.40;99.90;;;;;;5029560;28;20453;-71
2021/10/19 01:42:35;;;;;;;13.77;11.93;;;13.40;99.90;;;;;;5029678;28;20572;-71
2021/10/19 01:45:01;;;;;;;14.73;12.13;;;13.40;99.90;;;;;;5027511;27;20463;-71
2021/10/19 01:47:28;;;;;;;16.90;12.00;;;13.40;99.90;;;;;;5029629;28;20423;-71
2021/10/19 01:49:53;;;;;;;13.63;12.03;;;13.40;99.90;;;;;;5029468;28;20195;-71
2021/10/19 01:52:19;;;;;;;15.57;11.70;;;13.40;99.90;;;;;;5029578;28;20458;-71
2021/10/19 01:54:44;;;;;;;15.13;13.00;;;13.40;99.90;;;;;;5027914;27;20702;-71
2021/10/19 01:57:10;;;;;;;15.03;12.87;;;13.40;99.90;;;;;;5029393;28;20249;-71
2021/10/19 01:59:35;;;;;;;15.77;12.43;;;13.40;99.90;;;;;;5029807;28;20626;-71
2021/10/19 02:02:01;;;;;;;13.53;12.13;;;13.40;99.90;;;;;;5033192;28;20171;-71
2021/10/19 02:04:26;;;;;;;15.80;13.37;;;13.40;99.90;;;;;;5030978;28;20656;-71
2021/10/19 02:06:52;;;;;;;13.83;12.03;;;13.40;99.90;;;;;;5032794;27;20598;-71
2021/10/19 02:09:17;;;;;;;13.03;11.70;;;13.40;99.90;;;;;;5033205;28;20677;-71
2021/10/19 02:11:43;;;;;;;15.37;11.90;;;13.40;99.90;;;;;;5032809;28;20648;-71
2021/10/19 02:14:08;;;;;;;13.73;11.80;;;13.40;99.90;;;;;;5032531;28;20636;-71
2021/10/19 02:16:34;;;;;;;13.30;11.90;;;13.40;99.90;;;;;;5031321;28;20195;-72
2021/10/19 02:18:59;;;;;;;14.17;12.77;;;13.40;99.90;;;;;;5032777;28;20212;-71
2021/10/19 02:21:25;;;;;;;14.93;12.43;;;13.40;99.90;;;;;;5032950;28;20198;-71
2021/10/19 02:23:50;;;;;;;14.60;11.80;;;13.40;99.90;;;;;;5032300;28;20210;-71
2021/10/19 02:26:16;;;;;;;13.77;12.33;;;13.40;99.90;;;;;;5030922;27;20226;-71
2021/10/19 02:28:42;;;;;;;14.60;12.97;;;13.40;99.90;;;;;;5032394;28;20175;-71
2021/10/19 02:31:10;;;;;;;13.30;11.90;;;13.50;99.90;;;;;;5033070;28;20171;-71
2021/10/19 02:33:36;;;;;;;13.87;11.63;;;13.40;99.90;;;;;;5032479;28;20178;-71
2021/10/19 02:36:02;;;;;;;15.47;13.03;;;13.40;99.90;;;;;;5033174;28;20440;-71
2021/10/19 02:38:27;;;;;;;17.30;11.60;;;13.50;99.90;;;;;;5015192;28;20264;-71
2021/10/19 02:40:53;;;;;;;14.53;12.37;;;13.40;99.90;;;;;;5012496;28;20223;-71
2021/10/19 02:43:18;;;;;;;16.70;12.90;;;13.40;99.90;;;;;;5027993;28;20179;-71
2021/10/19 02:45:44;;;;;;;15.23;12.73;;;13.40;99.90;;;;;;5031870;27;20198;-72
2021/10/19 02:48:09;;;;;;;16.30;13.60;;;13.40;99.90;;;;;;5032547;28;20220;-71
2021/10/19 02:50:35;;;;;;;16.17;13.83;;;13.40;99.90;;;;;;5032518;28;20206;-71
2021/10/19 02:53:02;;;;;;;14.43;12.67;;;13.40;99.90;;;;;;5031271;28;20199;-71
2021/10/19 02:55:27;;;;;;;16.60;13.30;;;13.40;99.90;;;;;;5032232;28;20512;-71
2021/10/19 02:57:53;;;;;;;15.57;13.90;;;13.30;99.90;;;;;;5032329;28;20183;-71
2021/10/19 03:00:18;;;;;;;16.20;13.60;;;13.30;99.90;;;;;;5031325;27;20679;-71
2021/10/19 03:02:44;;;;;;;14.40;12.87;;;13.30;99.90;;;;;;5040938;28;20175;-70
2021/10/19 03:05:10;;;;;;;19.17;14.17;;;13.30;99.90;;;;;;5046845;28;20199;-70
2021/10/19 03:07:35;;;;;;;17.50;14.47;;;13.30;99.90;;;;;;5021993;28;20176;-71
2021/10/19 03:10:01;;;;;;;15.50;13.90;;;13.30;99.90;;;;;;5012352;28;20187;-71
2021/10/19 03:12:27;;;;;;;18.57;14.50;;;13.20;99.90;;;;;;5011879;27;20219;-71
2021/10/19 03:14:52;;;;;;;16.00;13.80;;;13.20;99.90;;;;;;5024592;28;20179;-71
2021/10/19 03:17:18;;;;;;;15.87;13.53;;;13.20;99.90;;;;;;5030588;28;20198;-71
2021/10/19 03:19:43;;;;;;;18.00;14.53;;;13.20;99.90;;;;;;5032512;28;20205;-71
2021/10/19 03:22:09;;;;;;;15.90;13.90;;;13.20;99.90;;;;;;5031664;28;20167;-71
2021/10/19 03:24:34;;;;;;;17.07;13.67;;;13.20;99.90;;;;;;5030268;27;20233;-71
2021/10/19 03:27:00;;;;;;;15.60;13.63;;;13.30;99.90;;;;;;5032156;28;20206;-71
2021/10/19 03:29:25;;;;;;;16.27;14.07;;;13.20;99.90;;;;;;5032058;28;20175;-71
2021/10/19 03:31:52;;;;;;;19.97;14.67;;;13.30;99.90;;;;;;5031491;28;20620;-71
2021/10/19 03:34:17;;;;;;;18.40;14.93;;;13.20;99.90;;;;;;5031323;28;20170;-71
2021/10/19 03:36:43;;;;;;;19.80;14.43;;;13.20;99.90;;;;;;5030034;27;20461;-71
2021/10/19 03:39:09;;;;;;;16.23;14.40;;;13.20;99.90;;;;;;5031826;28;20205;-71
2021/10/19 03:41:34;;;;;;;19.83;16.63;;;13.10;99.90;;;;;;5030720;28;20206;-71
2021/10/19 03:44:00;;;;;;;19.20;15.20;;;13.10;99.90;;;;;;5031736;28;20527;-71
2021/10/19 03:46:26;;;;;;;18.77;14.57;;;13.00;99.90;;;;;;5029570;27;20218;-71
2021/10/19 03:48:51;;;;;;;17.73;15.20;;;13.00;99.90;;;;;;5031524;28;20186;-71
2021/10/19 03:51:17;;;;;;;16.63;14.83;;;13.10;99.90;;;;;;5030090;28;20179;-71
2021/10/19 03:53:43;;;;;;;18.40;14.40;;;13.10;99.90;;;;;;5030993;28;20675;-71
2021/10/19 03:56:08;;;;;;;18.10;15.93;;;13.10;99.90;;;;;;5029792;28;20210;-71
2021/10/19 03:58:34;;;;;;;19.03;15.53;;;13.10;99.90;;;;;;5031479;28;20883;-71
2021/10/19 04:01:00;;;;;;;20.37;15.37;;;13.00;99.90;;;;;;5034281;28;20203;-71
2021/10/19 04:03:25;;;;;;;18.10;14.73;;;13.10;99.90;;;;;;5033910;28;20167;-71
2021/10/19 04:05:52;;;;;;;17.23;15.43;;;13.10;99.90;;;;;;5035761;27;20190;-71
2021/10/19 04:08:18;;;;;;;19.70;15.40;;;13.00;99.90;;;;;;5034444;28;20178;-71
2021/10/19 04:10:43;;;;;;;18.40;15.33;;;13.00;99.90;;;;;;5031947;28;20413;-71
2021/10/19 04:13:09;;;;;;;19.27;15.97;;;13.00;99.90;;;;;;5032696;28;20253;-71
2021/10/19 04:15:34;;;;;;;22.67;16.23;;;13.00;99.90;;;;;;5030594;28;20213;-71
2021/10/19 04:18:00;;;;;;;19.90;16.60;;;12.90;99.90;;;;;;5029154;27;20195;-71
2021/10/19 04:20:25;;;;;;;22.70;16.40;;;12.80;99.90;;;;;;5030962;28;20281;-71
2021/10/19 04:22:51;;;;;;;22.87;17.07;;;12.80;99.90;;;;;;5030901;28;20635;-71
2021/10/19 04:25:16;;;;;;;19.50;16.00;;;12.70;99.90;;;;;;5030626;28;20266;-71
2021/10/19 04:27:42;;;;;;;18.07;14.93;;;12.70;99.90;;;;;;5031035;28;20171;-71
2021/10/19 04:30:08;;;;;;;20.50;16.03;;;12.70;99.90;;;;;;5018396;28;20182;-71
2021/10/19 04:32:34;;;;;;;21.20;16.23;;;12.70;99.90;;;;;;5014627;28;20180;-71
2021/10/19 04:34:59;;;;;;;20.20;16.80;;;12.70;99.90;;;;;;5010677;27;20434;-71
2021/10/19 04:37:25;;;;;;;21.67;16.10;;;12.80;99.90;;;;;;5011002;28;20179;-71
2021/10/19 04:39:50;;;;;;;20.73;15.53;;;12.70;99.90;;;;;;5012346;28;20207;-71
2021/10/19 04:42:16;;;;;;;17.63;14.90;;;12.70;99.90;;;;;;5017634;28;20171;-71
2021/10/19 04:44:41;;;;;;;17.27;13.67;;;12.70;99.90;;;;;;5030394;28;20647;-71
2021/10/19 04:47:07;;;;;;;15.67;13.23;;;12.80;99.90;;;;;;5030267;27;20349;-71
2021/10/19 04:49:33;;;;;;;12.73;11.43;;;12.80;99.90;;;;;;5030494;28;20191;-71
2021/10/19 04:51:58;;;;;;;13.00;11.70;;;12.90;99.90;;;;;;5029165;28;20178;-71
2021/10/19 04:54:24;;;;;;;14.90;11.60;;;12.90;99.90;;;;;;5030209;28;20167;-71
2021/10/19 04:56:49;;;;;;;15.77;12.20;;;13.00;99.90;;;;;;5030232;28;20469;-71
2021/10/19 04:59:15;;;;;;;15.03;12.10;;;13.10;99.90;;;;;;5030792;28;20286;-71
2021/10/19 05:01:40;;;;;;;13.10;11.53;;;13.10;99.90;;;;;;5030945;28;20727;-71
2021/10/19 05:04:07;;;;;;;13.07;11.20;;;13.10;99.90;;;;;;5028612;28;20183;-71
2021/10/19 05:06:32;;;;;;;14.03;11.23;;;13.10;99.90;;;;;;5030440;28;20186;-71
2021/10/19 05:08:58;;;;;;;14.80;12.60;;;13.20;99.90;;;;;;5029711;27;20971;-71
2021/10/19 05:11:23;;;;;;;13.03;11.50;;;13.20;99.90;;;;;;5020149;27;20288;-72
2021/10/19 05:13:49;;;;;;;12.50;11.10;;;13.20;99.90;;;;;;5028245;28;20280;-70
2021/10/19 05:16:14;;;;;;;11.53;9.80;;;13.20;99.90;;;;;;5086997;27;20242;-71
2021/10/19 05:18:40;;;;;;;12.47;10.33;;;13.30;99.90;;;;;;5081412;28;20564;-70
2021/10/19 05:21:05;;;;;;;11.60;10.40;;;13.30;99.90;;;;;;5083001;27;20218;-70
2021/10/19 05:23:32;;;;;;;11.47;10.30;;;13.30;99.90;;;;;;5040827;28;20246;-71
2021/10/19 05:25:58;;;;;;;11.27;10.10;;;13.30;99.90;;;;;;5108841;27;20266;-70
2021/10/19 05:28:24;;;;;;;10.50;9.37;;;13.30;99.90;;;;;;5132283;27;20811;-71
2021/10/19 05:30:50;;;;;;;10.90;9.80;;;13.30;99.90;;;;;;5131009;28;20441;-70
2021/10/19 05:33:15;;;;;;;12.33;10.53;;;13.30;99.90;;;;;;5075248;27;20208;-70
2021/10/19 05:35:41;;;;;;;11.23;9.87;;;13.30;99.90;;;;;;5009713;28;20719;-68
2021/10/19 05:38:06;;;;;;;10.27;9.17;;;13.30;99.90;;;;;;5011552;27;20557;-70
2021/10/19 05:40:32;;;;;;;11.47;10.20;;;13.30;99.90;;;;;;5011332;28;20660;-70
2021/10/19 05:42:57;;;;;;;12.20;10.10;;;13.40;99.90;;;;;;5011488;27;20215;-72
2021/10/19 05:45:23;;;;;;;10.20;8.50;;;13.30;99.90;;;;;;5012008;27;20287;-71
2021/10/19 05:47:48;;;;;;;10.50;9.10;;;13.30;99.90;;;;;;5012757;28;20160;-70
2021/10/19 05:50:16;;;;;;;9.20;8.30;;;13.30;99.90;;;;;;5012432;28;20558;-71
2021/10/19 05:52:42;;;;;;;10.13;9.03;;;13.30;99.90;;;;;;5012509;28;20185;-70
2021/10/19 05:55:09;;;;;;;9.50;8.60;;;13.40;99.90;;;;;;5012233;28;20422;-71
2021/10/19 05:57:34;;;;;;;8.70;7.73;;;13.40;99.90;;;;;;5011227;28;20938;-70
2021/10/19 06:00:00;;;;;;;8.13;7.30;;;13.40;99.90;;;;;;5010957;27;20519;-70
2021/10/19 06:02:26;;;;;;;8.27;7.40;;;13.40;99.90;;;;;;5012118;28;20459;-71
2021/10/19 06:04:51;;;;;;;7.90;7.10;;;13.40;99.90;;;;;;5013618;28;20315;-70
2021/10/19 06:07:17;;;;;;;7.67;6.87;;;13.40;99.90;;;;;;5012713;28;20172;-70
2021/10/19 06:09:43;;;;;;;8.00;7.20;;;13.40;99.90;;;;;;5015160;28;20411;-70
2021/10/19 06:12:08;;;;;;;6.80;6.20;;;13.40;99.90;;;;;;5013672;27;20418;-70
2021/10/19 06:14:34;;;;;;;8.13;7.33;;;13.40;99.90;;;;;;5014681;28;20187;-70
2021/10/19 06:16:59;;;;;;;9.53;7.20;;;13.40;99.90;;;;;;5025878;28;20204;-70
2021/10/19 06:19:25;;;;;;;6.90;6.20;;;13.40;99.90;;;;;;5023550;28;20285;-70
2021/10/19 06:21:51;;;;;;;8.27;7.00;;;13.40;99.90;;;;;;5015645;28;20168;-71
2021/10/19 06:24:17;;;;;;;7.07;6.37;;;13.40;99.90;;;;;;5014710;27;20252;-71
2021/10/19 06:26:43;;;;;;;7.00;6.30;;;13.40;99.90;;;;;;5014183;28;20214;-71
2021/10/19 06:29:11;;;;;;;5.90;5.30;;;13.40;99.90;;;;;;5014492;28;20399;-70
2021/10/19 06:31:38;;;;;;;5.63;5.23;;;13.40;99.90;;;;;;5014026;28;20275;-71
2021/10/19 06:34:05;;;;;;;6.10;5.47;;;13.40;99.90;;;;;;5014904;28;20417;-71
2021/10/19 06:36:30;;;;;;;6.60;5.90;;;13.40;99.90;;;;;;5033799;28;20448;-71
2021/10/19 06:38:56;;;;;;;6.23;5.60;;;13.40;99.90;;;;;;5034541;28;20402;-71
2021/10/19 06:41:22;;;;;;;5.57;5.07;;;13.40;99.90;;;;;;5033311;27;20480;-71
2021/10/19 06:43:48;;;;;;;5.73;5.23;;;13.40;99.90;;;;;;5032966;28;20297;-71
2021/10/19 06:46:13;;;;;;;6.20;5.60;;;13.40;99.90;;;;;;5032952;28;20504;-71
2021/10/19 06:48:39;;;;;;;5.40;4.90;;;13.40;99.90;;;;;;5033042;28;20175;-71
2021/10/19 06:51:05;;;;;;;6.20;5.60;;;13.30;99.90;;;;;;5033251;28;20208;-70
2021/10/19 06:53:34;;;;;;;5.60;5.10;;;13.30;99.90;;;;;;5029195;27;20274;-70
2021/10/19 06:56:00;;;;;;;5.10;4.60;;;13.40;99.90;;;;;;5032971;28;20524;-71
2021/10/19 06:58:26;;;;;;;7.07;5.63;;;13.40;99.90;;;;;;5032437;28;20410;-71
2021/10/19 07:00:54;;;;;;;5.80;5.40;;;13.40;99.90;;;;;;5032874;28;20502;-71
2021/10/19 07:03:19;;;;;;;6.90;5.20;;;13.50;99.90;;;;;;5030696;28;20601;-71
2021/10/19 07:05:45;;;;;;;6.03;5.43;;;13.50;99.90;;;;;;5031795;28;20418;-71
2021/10/19 07:08:11;;;;;;;4.90;4.50;;;13.50;99.90;;;;;;5032409;27;20171;-72
2021/10/19 07:10:37;;;;;;;5.63;5.13;;;13.50;99.90;;;;;;5032707;28;20171;-71
2021/10/19 07:13:03;;;;;;;5.67;4.63;;;13.50;99.90;;;;;;5030683;28;20656;-70
2021/10/19 07:15:34;;;;;;;4.53;4.07;;;13.50;99.90;;;;;;5030204;28;20449;-70
2021/10/19 07:18:03;;;;;;;4.67;4.27;;;13.50;99.90;;;;;;5039004;28;20454;-70
2021/10/19 07:20:29;;;;;;;5.07;4.67;;;13.50;99.90;;;;;;5041987;27;20986;-71
2021/10/19 07:22:56;;;;;;;4.70;4.20;;;13.50;99.90;;;;;;5032197;28;20459;-71
2021/10/19 07:25:22;;;;;;;5.13;4.70;;;13.50;99.90;;;;;;5030600;28;20202;-71
2021/10/19 07:27:48;;;;;;;5.83;5.30;;;13.50;99.90;;;;;;5032258;28;20412;-71
2021/10/19 07:30:16;;;;;;;5.70;5.20;;;13.60;99.90;;;;;;5032281;27;20500;-72
2021/10/19 07:32:42;;;;;;;7.07;5.33;;;13.60;99.90;;;;;;5031996;28;20167;-72
2021/10/19 07:35:08;;;;;;;6.60;5.90;;;13.60;99.90;;;;;;5030401;28;21061;-72
2021/10/19 07:37:38;;;;;;;6.60;6.00;;;13.60;99.90;;;;;;5031915;28;20409;-72
2021/10/19 07:40:06;;;;;;;5.27;4.80;;;13.60;99.90;;;;;;5032639;28;20461;-70
2021/10/19 07:42:33;;;;;;;5.03;4.63;;;13.70;99.90;;;;;;5032838;28;20418;-69
2021/10/19 07:45:00;;;;;;;5.17;4.67;;;13.70;99.90;;;;;;5039487;27;20433;-70
2021/10/19 07:47:25;;;;;;;5.00;4.60;;;13.70;99.90;;;;;;5028683;28;20425;-70
2021/10/19 07:49:51;;;;;;;4.73;4.33;;;13.70;99.90;;;;;;5031640;28;20581;-70
2021/10/19 07:52:17;;;;;;;4.70;4.30;;;13.70;99.90;;;;;;5031655;28;20219;-70
2021/10/19 07:54:43;;;;;;;4.43;4.13;;;13.80;99.90;;;;;;5031127;28;20175;-70
2021/10/19 07:57:08;;;;;;;4.77;4.37;;;13.80;99.90;;;;;;5028742;27;20452;-72
2021/10/19 07:59:34;;;;;;;4.73;4.33;;;13.80;99.90;;;;;;5031013;28;20519;-71
2021/10/19 08:01:59;;;;;;;4.53;4.13;;;13.80;99.90;;;;;;5031032;28;20173;-71
2021/10/19 08:04:25;;;;;;;4.83;4.43;;;13.80;99.90;;;;;;5030693;28;20698;-71
2021/10/19 08:06:50;;;;;;;5.53;4.93;;;13.80;99.90;;;;;;5028838;28;20673;-71
2021/10/19 08:09:16;;;;;;;5.73;5.23;;;13.80;99.90;;;;;;5031348;28;20171;-71
2021/10/19 08:11:42;;;;;;;5.00;4.50;;;13.80;99.90;;;;;;5031133;28;20496;-72
2021/10/19 08:14:07;;;;;;;6.00;4.73;;;13.80;99.90;;;;;;5031081;27;20556;-71
2021/10/19 08:16:33;;;;;;;4.30;3.93;;;13.80;99.90;;;;;;5031150;28;20198;-70
2021/10/19 08:18:59;;;;;;;4.53;4.13;;;13.80;99.90;;;;;;5029942;28;20678;-70
2021/10/19 08:21:25;;;;;;;4.70;4.30;;;13.80;99.90;;;;;;5031251;28;20592;-71
2021/10/19 08:23:51;;;;;;;4.43;4.03;;;13.80;99.90;;;;;;5030516;27;20186;-71
2021/10/19 08:26:16;;;;;;;4.50;4.10;;;13.80;99.90;;;;;;5031073;28;20512;-72
2021/10/19 08:28:47;;;;;;;4.77;4.37;;;13.70;99.90;;;;;;5026218;28;20472;-71
2021/10/19 08:31:15;;;;;;;4.47;4.07;;;13.80;99.90;;;;;;5014265;28;20171;-71
2021/10/19 08:33:43;;;;;;;6.80;3.80;;;13.80;99.90;;;;;;5012721;28;20421;-70
2021/10/19 08:36:09;;;;;;;3.77;3.47;;;13.80;99.90;;;;;;5011485;27;20493;-71
2021/10/19 08:38:35;;;;;;;4.27;3.87;;;13.70;99.90;;;;;;5012567;28;20697;-71
2021/10/19 08:41:01;;;;;;;3.57;3.27;;;13.80;99.90;;;;;;5011085;28;20454;-70
2021/10/19 08:43:27;;;;;;;3.57;3.27;;;13.80;99.90;;;;;;5027927;28;20182;-70
2021/10/19 08:45:52;;;;;;;3.90;3.60;;;13.80;99.90;;;;;;5030596;27;20183;-71
2021/10/19 08:48:19;;;;;;;3.77;3.47;;;13.80;99.90;;;;;;5030533;28;20287;-71
2021/10/19 08:50:45;;;;;;;3.40;3.10;;;13.90;99.90;;;;;;5030886;28;20198;-71
2021/10/19 08:53:12;;;;;;;4.40;3.40;;;13.90;99.90;;;;;;5028701;28;20433;-70
2021/10/19 08:55:37;;;;;;;3.60;3.30;;;13.90;99.90;;;;;;5029934;28;20267;-71
2021/10/19 08:58:04;;;;;;;3.53;3.23;;;14.00;99.90;;;;;;5030554;27;20856;-72
2021/10/19 09:00:30;;;;;;;3.57;3.27;;;14.00;99.90;;;;;;5030565;28;20190;-71
2021/10/19 09:02:56;;;;;;;2.70;2.50;;;14.10;99.90;;;;;;5028626;28;20422;-71
2021/10/19 09:05:28;;;;;;;3.83;3.20;;;14.20;99.90;;;;;;5029671;28;20426;-72
2021/10/19 09:07:59;;;;;;;3.03;2.73;;;14.20;99.90;;;;;;5030273;28;20620;-71
2021/10/19 09:10:27;;;;;;;3.37;3.10;;;14.20;99.90;;;;;;5034199;28;20784;-71
2021/10/19 09:13:01;;;;;;;5.57;4.90;;;14.20;99.90;;;;;;5033712;28;20918;-71
2021/10/19 09:15:29;;;;;;;5.13;4.63;;;14.20;99.90;;;;;;5031999;27;20744;-71
2021/10/19 09:18:03;;;;;;;3.53;3.33;;;14.20;99.90;;;;;;5033052;28;20425;-71
2021/10/19 09:20:29;;;;;;;3.57;3.27;;;14.30;99.90;;;;;;5029817;28;20837;-71
2021/10/19 09:23:01;;;;;;;3.13;2.93;;;14.30;99.90;;;;;;5014346;28;20445;-71
2021/10/19 09:25:29;;;;;;;3.40;3.13;;;14.30;99.90;;;;;;5018495;28;20437;-71
2021/10/19 09:27:56;;;;;;;3.53;3.23;;;14.30;99.90;;;;;;5025124;27;20438;-72
2021/10/19 09:30:47;;;;;;;3.20;3.00;;;14.40;99.90;;;;;;5024964;28;20441;-71
2021/10/19 09:33:17;;;;;;;2.80;2.60;;;14.40;99.90;;;;;;5014128;28;20487;-71
2021/10/19 09:35:44;;;;;;;3.63;3.37;;;14.40;99.90;;;;;;5012696;28;20768;-71
2021/10/19 09:38:12;;;;;;;2.90;2.70;;;14.40;99.90;;;;;;5013887;28;20429;-71
2021/10/19 09:40:56;;;;;;;3.27;3.07;;;14.50;99.90;;;;;;5014589;27;20488;-71
2021/10/19 09:43:25;;;;;;;4.10;3.80;;;14.50;99.90;;;;;;5013630;28;20417;-71
2021/10/19 09:45:53;;;;;;;3.63;3.33;;;14.50;99.90;;;;;;5013020;28;20445;-71
2021/10/19 09:48:31;;;;;;;3.30;3.00;;;14.40;99.90;;;;;;5013890;28;20434;-71
2021/10/19 09:50:58;;;;;;;3.10;2.70;;;14.50;99.90;;;;;;5022649;28;20421;-71
2021/10/19 09:53:25;;;;;;;3.17;2.97;;;14.50;99.90;;;;;;5032559;28;20486;-71
2021/10/19 09:55:53;;;;;;;2.90;2.70;;;14.60;99.90;;;;;;5032715;27;20433;-71
2021/10/19 09:58:19;;;;;;;2.53;2.37;;;14.60;99.90;;;;;;5033048;28;20902;-71
2021/10/19 10:00:46;;;;;;;3.07;2.37;;;14.70;99.90;;;;;;5029863;28;20910;-71
2021/10/19 10:03:12;;;;;;;2.10;2.00;;;14.70;99.90;;;;;;5031899;28;20456;-72
2021/10/19 10:05:38;;;;;;;2.70;2.50;;;14.70;99.90;;;;;;5032463;28;20521;-72
2021/10/19 10:08:07;;;;;;;2.30;2.20;;;14.70;99.90;;;;;;5032934;27;20773;-71
2021/10/19 10:10:33;;;;;;;2.20;2.10;;;14.70;99.90;;;;;;5032844;28;20420;-72
2021/10/19 10:13:05;;;;;;;2.90;2.70;;;14.70;99.90;;;;;;5015546;28;20513;-71
2021/10/19 10:15:34;;;;;;;2.13;2.03;;;14.70;99.90;;;;;;5012695;28;20640;-72
2021/10/19 10:18:08;;;;;;;2.23;2.13;;;14.80;99.90;;;;;;5014363;28;20411;-72
2021/10/19 10:20:42;;;;;;;2.57;2.37;;;14.80;99.90;;;;;;5014375;27;21007;-70
2021/10/19 10:23:18;;;;;;;2.60;2.20;;;14.90;99.90;;;;;;5027193;28;20430;-71
2021/10/19 10:25:46;;;;;;;2.73;2.57;;;14.90;99.90;;;;;;5034022;28;20429;-71
2021/10/19 10:28:26;;;;;;;2.53;2.40;;;15.00;99.90;;;;;;5035154;28;20746;-71
2021/10/19 10:30:53;;;;;;;2.27;2.17;;;15.00;99.90;;;;;;5037867;28;20414;-71
2021/10/19 10:33:31;;;;;;;2.30;2.20;;;15.00;99.90;;;;;;5040055;27;20422;-71
2021/10/19 10:36:04;;;;;;;4.27;2.43;;;14.90;99.90;;;;;;5032646;28;20910;-71
2021/10/19 10:38:30;;;;;;;3.37;2.30;;;15.00;99.90;;;;;;5032962;28;20442;-70
2021/10/19 10:41:07;;;;;;;3.00;2.77;;;15.00;99.90;;;;;;5032141;28;20867;-71
2021/10/19 10:43:35;;;;;;;2.70;2.50;;;15.00;99.90;;;;;;5029140;28;20174;-71
2021/10/19 10:46:15;;;;;;;3.03;2.83;;;15.00;99.90;;;;;;5012456;27;20796;-71
2021/10/19 10:48:41;;;;;;;2.80;2.60;;;15.10;99.90;;;;;;5011724;28;20412;-71
2021/10/19 10:51:08;;;;;;;2.80;2.60;;;15.10;99.90;;;;;;5012715;28;20256;-71
2021/10/19 10:53:45;;;;;;;2.50;2.30;;;15.10;99.90;;;;;;5013795;28;20445;-70
2021/10/19 10:56:13;;;;;;;3.90;3.20;;;15.10;99.90;;;;;;5025679;28;20426;-71
2021/10/19 10:58:40;;;;;;;2.43;2.30;;;15.10;99.90;;;;;;5013708;27;20495;-71
2021/10/19 11:01:14;;;;;;;2.37;2.27;;;15.10;99.90;;;;;;5012466;28;20470;-71
2021/10/19 11:03:44;;;;;;;5.10;2.80;;;15.10;99.90;;;;;;5012622;28;20419;-71
2021/10/19 11:06:19;;;;;;;2.10;1.97;;;15.10;99.90;;;;;;5013203;28;20439;-71
2021/10/19 11:08:47;;;;;;;1.87;1.77;;;15.20;99.90;;;;;;5012253;28;20410;-71
2021/10/19 11:11:12;;;;;;;2.10;2.00;;;15.20;99.90;;;;;;5011975;27;20503;-71
2021/10/19 11:14:07;;;;;;;2.50;2.40;;;15.20;99.90;;;;;;5012018;28;20422;-72
2021/10/19 11:16:39;;;;;;;2.40;2.30;;;15.30;99.90;;;;;;5023506;28;20207;-71
2021/10/19 11:19:12;;;;;;;2.00;1.90;;;15.30;99.90;;;;;;5031807;28;20440;-71
2021/10/19 11:21:38;;;;;;;2.10;1.83;;;15.30;99.90;;;;;;5032083;27;20477;-71
2021/10/19 11:24:04;;;;;;;1.97;1.87;;;15.30;99.90;;;;;;5031886;28;20911;-71
2021/10/19 11:26:29;;;;;;;2.30;2.20;;;15.30;99.90;;;;;;5030390;28;20247;-71
2021/10/19 11:28:57;;;;;;;2.77;2.57;;;15.40;99.90;;;;;;5031639;28;20421;-71
2021/10/19 11:31:28;;;;;;;2.37;2.27;;;15.50;99.90;;;;;;5031021;28;20175;-71
2021/10/19 11:33:55;;;;;;;2.70;2.50;;;15.50;99.90;;;;;;5030251;28;20496;-71
2021/10/19 11:36:21;;;;;;;2.30;2.20;;;15.60;99.90;;;;;;5029983;28;20764;-71
2021/10/19 11:38:49;;;;;;;2.27;2.07;;;15.60;99.90;;;;;;5031555;27;20433;-71
2021/10/19 11:41:18;;;;;;;2.20;2.10;;;15.60;99.90;;;;;;5031758;28;20197;-71
2021/10/19 11:43:47;;;;;;;2.07;1.97;;;15.70;99.90;;;;;;5031969;28;20413;-72
2021/10/19 11:46:16;;;;;;;1.70;1.60;;;15.70;99.90;;;;;;5033282;28;20426;-71
2021/10/19 11:48:42;;;;;;;2.50;2.40;;;15.70;99.90;;;;;;5015229;27;20462;-71
2021/10/19 11:51:11;;;;;;;2.20;2.00;;;15.70;99.90;;;;;;5011261;28;20477;-71
2021/10/19 11:53:39;;;;;;;2.37;2.27;;;15.70;99.90;;;;;;5011337;28;20202;-70
2021/10/19 11:56:05;;;;;;;2.20;2.10;;;15.70;99.90;;;;;;5011550;28;20475;-70
2021/10/19 11:58:32;;;;;;;2.50;2.40;;;15.80;99.90;;;;;;5019709;28;20813;-71
2021/10/19 12:00:58;;;;;;;2.50;2.40;;;15.70;99.90;;;;;;5031287;28;20453;-71
2021/10/19 12:03:31;;;;;;;3.40;3.20;;;15.70;99.90;;;;;;5030601;27;20421;-70
2021/10/19 12:05:58;;;;;;;3.07;2.87;;;15.70;99.90;;;;;;5031483;28;20274;-70
2021/10/19 12:08:31;;;;;;;3.10;2.80;;;15.80;99.90;;;;;;5028934;28;20410;-70
2021/10/19 12:11:11;;;;;;;2.60;2.50;;;15.80;99.90;;;;;;5011681;28;20407;-70
2021/10/19 12:13:40;;;;;;;3.60;2.70;;;15.80;99.90;;;;;;5010989;28;20409;-70
2021/10/19 12:16:09;;;;;;;3.33;3.07;;;15.70;99.90;;;;;;5010840;27;20466;-70
2021/10/19 12:18:43;;;;;;;3.60;3.40;;;15.70;99.90;;;;;;5011306;28;20980;-70
2021/10/19 12:21:10;;;;;;;4.20;3.90;;;15.70;99.90;;;;;;5029969;28;20453;-70
2021/10/19 12:23:37;;;;;;;4.60;4.30;;;15.80;99.90;;;;;;5030574;28;20406;-70
2021/10/19 12:26:09;;;;;;;5.07;4.67;;;15.80;99.90;;;;;;5030905;27;20438;-70
2021/10/19 12:28:34;;;;;;;5.60;5.20;;;15.80;99.90;;;;;;5031113;28;20390;-70
2021/10/19 12:31:00;;;;;;;5.00;4.60;;;15.80;99.90;;;;;;5029192;28;20520;-70
2021/10/19 12:33:28;;;;;;;5.63;5.20;;;15.90;99.90;;;;;;5030871;28;20631;-70
2021/10/19 12:36:11;;;;;;;6.73;6.13;;;15.90;99.90;;;;;;5030557;28;20247;-70
2021/10/19 12:38:40;;;;;;;4.93;4.53;;;15.80;99.90;;;;;;5032231;28;20433;-70